createdAt,value
2018-03-22T00:02:14.598Z,-1.80
2018-03-22T00:04:44.786Z,-2.13
2018-03-22T00:07:14.223Z,-2.16
2018-03-22T00:12:18.057Z,-2.28
2018-03-22T00:14:47.253Z,-2.23
2018-03-22T00:17:16.340Z,-2.29
2018-03-22T00:19:45.331Z,-2.50
2018-03-22T00:25:16.625Z,-2.70
2018-03-22T00:27:45.672Z,-2.67
2018-03-22T00:30:14.957Z,-2.65
2018-03-22T00:32:44.494Z,-2.62
2018-03-22T00:35:13.290Z,-2.55
2018-03-22T00:37:42.052Z,-2.52
2018-03-22T00:40:11.897Z,-2.49
2018-03-22T00:42:41.277Z,-2.64
2018-03-22T00:45:10.723Z,-2.72
2018-03-22T00:47:39.594Z,-2.62
2018-03-22T00:50:08.685Z,-2.60
2018-03-22T00:52:38.407Z,-2.65
2018-03-22T00:55:07.509Z,-2.77
2018-03-22T00:57:36.604Z,-2.78
2018-03-22T01:00:05.606Z,-2.78
2018-03-22T01:02:35.495Z,-2.84
2018-03-22T01:05:05.116Z,-2.59
2018-03-22T01:07:34.979Z,-2.62
2018-03-22T01:10:05.100Z,-2.65
2018-03-22T01:12:34.593Z,-2.72
2018-03-22T01:15:03.458Z,-2.77
2018-03-22T01:17:32.711Z,-2.71
2018-03-22T01:20:01.321Z,-2.93
2018-03-22T01:22:30.092Z,-3.02
2018-03-22T01:24:58.381Z,-3.05
2018-03-22T01:27:26.839Z,-3.22
2018-03-22T01:29:55.264Z,-3.30
2018-03-22T01:32:23.605Z,-3.34
2018-03-22T01:34:52.374Z,-3.36
2018-03-22T01:37:21.513Z,-3.36
2018-03-22T01:39:50.341Z,-3.36
2018-03-22T01:42:18.928Z,-3.30
2018-03-22T01:44:47.845Z,-3.19
2018-03-22T01:47:16.716Z,-3.14
2018-03-22T01:49:45.382Z,-2.95
2018-03-22T01:52:14.445Z,-2.93
2018-03-22T01:54:42.956Z,-3.21
2018-03-22T01:57:11.895Z,-3.41
2018-03-22T01:59:40.319Z,-3.49
2018-03-22T02:02:08.787Z,-3.48
2018-03-22T02:04:37.612Z,-3.42
2018-03-22T02:07:07.704Z,-3.42
2018-03-22T02:09:36.932Z,-3.54
2018-03-22T02:12:05.916Z,-3.37
2018-03-22T02:14:35.552Z,-3.42
2018-03-22T02:17:04.436Z,-3.38
2018-03-22T02:19:33.023Z,-3.51
2018-03-22T02:22:01.921Z,-3.63
2018-03-22T02:24:30.607Z,-3.80
2018-03-22T02:26:59.037Z,-3.95
2018-03-22T02:29:27.360Z,-3.98
2018-03-22T02:31:56.817Z,-4.09
2018-03-22T02:34:25.423Z,-4.16
2018-03-22T02:36:54.476Z,-4.08
2018-03-22T02:39:23.882Z,-4.13
2018-03-22T02:41:52.105Z,-4.10
2018-03-22T02:44:20.883Z,-4.10
2018-03-22T02:46:49.136Z,-4.07
2018-03-22T02:49:17.820Z,-3.77
2018-03-22T02:51:46.378Z,-3.62
2018-03-22T02:54:14.738Z,-3.91
2018-03-22T02:56:43.474Z,-4.08
2018-03-22T02:59:12.160Z,-4.17
2018-03-22T03:01:41.134Z,-4.12
2018-03-22T03:04:09.947Z,-4.21
2018-03-22T03:06:38.379Z,-4.03
2018-03-22T03:09:06.757Z,-4.12
2018-03-22T03:11:35.485Z,-4.18
2018-03-22T03:14:04.980Z,-4.16
2018-03-22T03:16:33.613Z,-4.15
2018-03-22T03:19:02.978Z,-4.17
2018-03-22T03:21:31.472Z,-4.20
2018-03-22T03:23:59.965Z,-4.10
2018-03-22T03:26:28.900Z,-4.01
2018-03-22T03:28:57.685Z,-4.14
2018-03-22T03:31:25.802Z,-4.24
2018-03-22T03:33:54.292Z,-4.15
2018-03-22T03:36:22.751Z,-4.07
2018-03-22T03:38:51.259Z,-4.07
2018-03-22T03:41:20.068Z,-4.06
2018-03-22T03:43:48.358Z,-4.00
2018-03-22T03:46:17.040Z,-3.97
2018-03-22T03:48:46.287Z,-3.93
2018-03-22T03:51:15.025Z,-3.90
2018-03-22T03:53:43.678Z,-3.77
2018-03-22T03:56:12.875Z,-3.81
2018-03-22T03:58:42.123Z,-3.85
2018-03-22T04:01:10.952Z,-3.77
2018-03-22T04:03:39.669Z,-3.74
2018-03-22T04:06:08.299Z,-3.72
2018-03-22T04:08:36.743Z,-3.67
2018-03-22T04:11:05.188Z,-3.76
2018-03-22T04:13:33.671Z,-3.78
2018-03-22T04:16:03.289Z,-3.71
2018-03-22T04:18:32.072Z,-3.63
2018-03-22T04:21:00.750Z,-3.53
2018-03-22T04:23:29.631Z,-3.55
2018-03-22T04:25:57.445Z,-3.88
2018-03-22T04:28:27.760Z,-3.94
2018-03-22T04:30:57.351Z,-3.98
2018-03-22T04:33:27.579Z,-4.04
2018-03-22T04:35:57.840Z,-4.09
2018-03-22T04:38:27.190Z,-4.11
2018-03-22T04:40:55.851Z,-4.13
2018-03-22T04:43:25.148Z,-4.11
2018-03-22T04:45:53.517Z,-4.16
2018-03-22T04:48:22.037Z,-4.17
2018-03-22T04:50:51.390Z,-4.12
2018-03-22T04:53:20.844Z,-4.00
2018-03-22T04:55:49.637Z,-4.01
2018-03-22T04:58:18.442Z,-3.92
2018-03-22T05:00:47.228Z,-3.82
2018-03-22T05:03:16.309Z,-3.85
2018-03-22T05:05:44.941Z,-3.64
2018-03-22T05:08:13.457Z,-3.76
2018-03-22T05:10:42.189Z,-3.73
2018-03-22T05:13:10.991Z,-3.70
2018-03-22T05:15:39.499Z,-3.89
2018-03-22T05:18:07.854Z,-3.88
2018-03-22T05:20:36.546Z,-3.77
2018-03-22T05:23:05.812Z,-3.68
2018-03-22T05:25:34.385Z,-3.96
2018-03-22T05:28:02.770Z,-4.07
2018-03-22T05:30:31.972Z,-3.99
2018-03-22T05:33:01.043Z,-4.11
2018-03-22T05:35:29.988Z,-4.04
2018-03-22T05:37:58.672Z,-4.14
2018-03-22T05:40:28.329Z,-4.07
2018-03-22T05:42:57.052Z,-4.08
2018-03-22T05:45:25.606Z,-4.14
2018-03-22T05:47:54.025Z,-4.19
2018-03-22T05:50:23.255Z,-4.10
2018-03-22T05:52:51.746Z,-4.05
2018-03-22T05:55:20.969Z,-3.98
2018-03-22T05:57:51.913Z,-3.87
2018-03-22T06:00:20.442Z,-3.77
2018-03-22T06:02:49.206Z,-3.59
2018-03-22T06:05:17.734Z,-3.37
2018-03-22T06:07:46.194Z,-3.12
2018-03-22T06:10:14.969Z,-2.80
2018-03-22T06:12:43.415Z,-2.56
2018-03-22T06:15:12.237Z,-2.39
2018-03-22T06:17:40.695Z,-2.09
2018-03-22T06:20:09.486Z,-2.05
2018-03-22T06:22:38.507Z,-1.86
2018-03-22T06:25:07.267Z,-1.75
2018-03-22T06:27:35.576Z,-1.56
2018-03-22T06:30:03.981Z,-1.46
2018-03-22T06:32:32.653Z,-1.22
2018-03-22T06:35:01.132Z,-1.28
2018-03-22T06:37:29.706Z,-1.29
2018-03-22T06:39:58.009Z,-1.26
2018-03-22T06:42:26.975Z,-1.36
2018-03-22T06:44:55.153Z,-1.69
2018-03-22T06:47:23.762Z,-1.70
2018-03-22T06:49:52.197Z,-1.78
2018-03-22T06:52:21.389Z,-1.68
2018-03-22T06:54:50.223Z,-1.71
2018-03-22T06:57:18.524Z,-1.43
2018-03-22T06:59:47.498Z,-1.18
2018-03-22T07:02:16.446Z,-0.84
2018-03-22T07:04:44.658Z,-0.53
2018-03-22T07:07:13.465Z,-0.06
2018-03-22T07:09:42.288Z,0.30
2018-03-22T07:12:11.294Z,0.50
2018-03-22T07:14:40.021Z,0.64
2018-03-22T07:17:08.607Z,0.78
2018-03-22T07:19:37.437Z,0.95
2018-03-22T07:22:05.881Z,0.90
2018-03-22T07:24:33.701Z,1.08
2018-03-22T07:27:02.468Z,1.14
2018-03-22T07:29:31.174Z,1.37
2018-03-22T07:32:00.129Z,1.66
2018-03-22T07:34:28.520Z,1.58
2018-03-22T07:36:57.351Z,1.45
2018-03-22T07:39:25.634Z,1.34
2018-03-22T07:41:54.643Z,1.42
2018-03-22T07:44:28.494Z,0.93
2018-03-22T07:46:56.849Z,0.13
2018-03-22T07:49:25.281Z,0.12
2018-03-22T07:51:54.088Z,0.47
2018-03-22T07:54:21.596Z,0.83
2018-03-22T07:56:50.647Z,1.15
2018-03-22T07:59:18.957Z,1.43
2018-03-22T08:01:47.414Z,1.43
2018-03-22T08:04:15.440Z,1.58
2018-03-22T08:06:44.438Z,1.52
2018-03-22T08:09:12.946Z,1.55
2018-03-22T08:11:43.753Z,1.72
2018-03-22T08:14:12.782Z,1.86
2018-03-22T08:16:41.931Z,2.03
2018-03-22T08:19:10.570Z,1.70
2018-03-22T08:21:38.982Z,1.62
2018-03-22T08:24:08.186Z,2.21
2018-03-22T08:26:37.082Z,2.46
2018-03-22T08:29:05.630Z,2.43
2018-03-22T08:31:33.961Z,2.71
2018-03-22T08:34:02.816Z,3.07
2018-03-22T08:36:31.756Z,3.06
2018-03-22T08:39:00.200Z,2.81
2018-03-22T08:41:29.015Z,2.94
2018-03-22T08:43:57.516Z,2.78
2018-03-22T08:46:26.103Z,2.66
2018-03-22T08:48:55.712Z,2.81
2018-03-22T08:51:24.742Z,3.18
2018-03-22T08:53:53.774Z,3.41
2018-03-22T08:56:22.523Z,3.69
2018-03-22T08:58:52.034Z,3.75
2018-03-22T09:01:20.521Z,4.01
2018-03-22T09:03:48.959Z,4.05
2018-03-22T09:06:17.399Z,4.11
2018-03-22T09:08:51.237Z,4.22
2018-03-22T09:11:19.425Z,4.44
2018-03-22T09:13:48.239Z,4.82
2018-03-22T09:16:16.895Z,5.09
2018-03-22T09:18:45.503Z,4.82
2018-03-22T09:21:15.738Z,4.89
2018-03-22T09:23:44.315Z,4.87
2018-03-22T09:26:13.359Z,4.93
2018-03-22T09:28:41.727Z,4.78
2018-03-22T09:31:10.108Z,5.13
2018-03-22T09:33:39.365Z,5.32
2018-03-22T09:36:08.985Z,5.84
2018-03-22T09:38:38.540Z,5.82
2018-03-22T09:43:41.134Z,5.56
2018-03-22T09:46:10.361Z,5.58
2018-03-22T09:48:39.796Z,5.80
2018-03-22T09:51:08.443Z,6.01
2018-03-22T09:53:37.196Z,5.91
2018-03-22T09:56:06.024Z,5.58
2018-03-22T09:58:34.389Z,5.50
2018-03-22T10:01:03.644Z,5.53
2018-03-22T10:03:32.325Z,5.53
2018-03-22T10:06:00.954Z,5.83
2018-03-22T10:08:29.508Z,5.94
2018-03-22T10:10:57.877Z,5.73
2018-03-22T10:13:26.347Z,5.54
2018-03-22T10:15:55.362Z,5.53
2018-03-22T10:18:24.808Z,5.54
2018-03-22T10:20:54.199Z,5.55
2018-03-22T10:23:23.736Z,5.66
2018-03-22T10:25:52.790Z,5.55
2018-03-22T10:28:21.916Z,5.45
2018-03-22T10:30:51.923Z,5.41
2018-03-22T10:33:20.849Z,5.33
2018-03-22T10:35:49.328Z,5.29
2018-03-22T10:38:17.708Z,5.45
2018-03-22T10:40:46.193Z,5.49
2018-03-22T10:43:14.860Z,5.49
2018-03-22T10:45:43.653Z,5.36
2018-03-22T10:48:12.531Z,5.38
2018-03-22T10:50:41.289Z,5.38
2018-03-22T10:53:10.673Z,5.38
2018-03-22T10:55:40.544Z,5.10
2018-03-22T10:58:09.284Z,4.89
2018-03-22T11:00:38.656Z,5.03
2018-03-22T11:03:13.481Z,5.19
2018-03-22T11:05:42.724Z,5.34
2018-03-22T11:08:11.196Z,5.22
2018-03-22T11:10:40.697Z,5.12
2018-03-22T11:13:09.116Z,4.81
2018-03-22T11:15:37.730Z,4.95
2018-03-22T11:18:06.309Z,4.86
2018-03-22T11:20:34.470Z,4.95
2018-03-22T11:23:04.318Z,5.18
2018-03-22T11:25:33.837Z,5.26
2018-03-22T11:28:02.808Z,5.02
2018-03-22T11:30:32.218Z,4.40
2018-03-22T11:33:00.354Z,4.23
2018-03-22T11:35:28.873Z,4.41
2018-03-22T11:37:57.529Z,4.14
2018-03-22T11:40:26.884Z,4.30
2018-03-22T11:42:55.593Z,4.37
2018-03-22T11:45:23.986Z,4.51
2018-03-22T11:47:52.784Z,4.74
2018-03-22T11:50:21.837Z,4.94
2018-03-22T11:52:50.594Z,5.19
2018-03-22T11:55:19.406Z,5.19
2018-03-22T11:57:47.957Z,5.14
2018-03-22T12:00:17.405Z,4.91
2018-03-22T12:02:46.191Z,4.90
2018-03-22T12:05:14.425Z,4.58
2018-03-22T12:07:42.802Z,4.76
2018-03-22T12:10:11.211Z,4.76
2018-03-22T12:12:39.722Z,4.81
2018-03-22T12:15:08.600Z,4.82
2018-03-22T12:17:37.309Z,4.75
2018-03-22T12:20:05.623Z,4.71
2018-03-22T12:22:34.755Z,4.64
2018-03-22T12:25:03.573Z,4.72
2018-03-22T12:27:31.717Z,4.71
2018-03-22T12:30:00.767Z,4.61
2018-03-22T12:32:29.007Z,4.54
2018-03-22T12:34:59.089Z,4.59
2018-03-22T12:37:28.761Z,4.68
2018-03-22T12:39:57.907Z,4.70
2018-03-22T12:42:26.698Z,4.86
2018-03-22T12:44:55.222Z,4.80
2018-03-22T12:47:24.105Z,5.00
2018-03-22T12:49:54.001Z,4.85
2018-03-22T12:52:23.846Z,4.60
2018-03-22T12:54:52.741Z,4.45
2018-03-22T12:57:21.148Z,4.46
2018-03-22T12:59:49.551Z,4.35
2018-03-22T13:02:18.475Z,4.19
2018-03-22T13:04:47.079Z,4.22
2018-03-22T13:07:15.737Z,4.27
2018-03-22T13:09:44.131Z,4.30
2018-03-22T13:12:12.663Z,4.34
2018-03-22T13:14:41.916Z,4.29
2018-03-22T13:17:10.940Z,4.35
2018-03-22T13:19:39.954Z,4.50
2018-03-22T13:22:09.295Z,4.49
2018-03-22T13:24:38.756Z,4.49
2018-03-22T13:27:07.200Z,4.63
2018-03-22T13:29:35.305Z,4.51
2018-03-22T13:32:03.363Z,4.44
2018-03-22T13:34:32.274Z,4.33
2018-03-22T13:37:01.350Z,4.35
2018-03-22T13:39:29.871Z,4.32
2018-03-22T13:41:58.745Z,4.31
2018-03-22T13:44:27.607Z,4.40
2018-03-22T13:46:56.256Z,4.43
2018-03-22T13:49:25.505Z,4.40
2018-03-22T13:51:54.004Z,4.27
2018-03-22T13:54:23.372Z,4.23
2018-03-22T13:56:51.991Z,4.09
2018-03-22T13:59:20.866Z,4.38
2018-03-22T14:01:49.685Z,4.31
2018-03-22T14:04:18.448Z,4.17
2018-03-22T14:06:47.216Z,4.34
2018-03-22T14:09:16.278Z,4.44
2018-03-22T14:11:45.339Z,4.32
2018-03-22T14:14:14.065Z,4.49
2018-03-22T14:16:44.202Z,4.39
2018-03-22T14:19:13.528Z,4.31
2018-03-22T14:21:42.868Z,4.13
2018-03-22T14:24:11.712Z,4.04
2018-03-22T14:26:42.016Z,4.04
2018-03-22T14:29:11.341Z,4.04
2018-03-22T14:31:39.560Z,4.11
2018-03-22T14:34:08.586Z,4.23
2018-03-22T14:36:37.379Z,4.30
2018-03-22T14:39:07.894Z,4.29
2018-03-22T14:41:37.849Z,4.25
2018-03-22T14:44:06.826Z,4.29
2018-03-22T14:46:36.231Z,4.33
2018-03-22T14:49:05.322Z,4.20
2018-03-22T14:51:34.613Z,4.17
2018-03-22T14:54:04.080Z,4.26
2018-03-22T14:56:34.544Z,4.34
2018-03-22T14:59:03.430Z,4.35
2018-03-22T15:01:32.602Z,4.11
2018-03-22T15:04:01.464Z,4.19
2018-03-22T15:06:30.687Z,4.30
2018-03-22T15:08:59.468Z,4.24
2018-03-22T15:11:28.376Z,4.21
2018-03-22T15:13:57.276Z,4.23
2018-03-22T15:16:26.021Z,4.17
2018-03-22T15:18:54.909Z,4.24
2018-03-22T15:21:23.169Z,4.14
2018-03-22T15:23:53.154Z,4.07
2018-03-22T15:26:21.752Z,4.09
2018-03-22T15:28:50.173Z,3.93
2018-03-22T15:31:18.754Z,3.90
2018-03-22T15:33:47.524Z,3.91
2018-03-22T15:36:16.280Z,3.86
2018-03-22T15:38:45.335Z,3.96
2018-03-22T15:41:14.045Z,3.87
2018-03-22T15:43:42.244Z,3.71
2018-03-22T15:46:12.486Z,3.78
2018-03-22T15:48:41.741Z,3.76
2018-03-22T15:51:10.636Z,3.63
2018-03-22T15:53:40.018Z,3.52
2018-03-22T15:56:10.062Z,3.26
2018-03-22T15:58:38.370Z,3.30
2018-03-22T16:01:07.156Z,3.23
2018-03-22T16:03:37.758Z,3.26
2018-03-22T16:06:06.771Z,3.12
2018-03-22T16:08:36.800Z,3.15
2018-03-22T16:11:05.531Z,3.22
2018-03-22T16:13:34.464Z,3.25
2018-03-22T16:16:02.801Z,3.17
2018-03-22T16:18:31.197Z,3.13
2018-03-22T16:21:00.372Z,3.14
2018-03-22T16:23:29.785Z,3.21
2018-03-22T16:25:58.753Z,3.13
2018-03-22T16:28:27.853Z,3.05
2018-03-22T16:30:56.528Z,2.97
2018-03-22T16:33:24.829Z,3.05
2018-03-22T16:35:53.614Z,3.01
2018-03-22T16:38:22.681Z,2.94
2018-03-22T16:40:51.104Z,3.08
2018-03-22T16:43:19.246Z,3.05
2018-03-22T16:45:47.245Z,3.15
2018-03-22T16:48:16.151Z,3.21
2018-03-22T16:50:44.789Z,3.15
2018-03-22T16:53:13.200Z,3.13
2018-03-22T16:55:42.006Z,2.92
2018-03-22T16:58:10.149Z,3.06
2018-03-22T17:00:39.351Z,3.07
2018-03-22T17:03:07.636Z,3.11
2018-03-22T17:05:36.099Z,3.13
2018-03-22T17:08:04.880Z,3.16
2018-03-22T17:10:33.553Z,3.10
2018-03-22T17:13:05.442Z,3.05
2018-03-22T17:15:34.712Z,3.12
2018-03-22T17:18:03.971Z,3.10
2018-03-22T17:20:33.039Z,3.16
2018-03-22T17:23:01.949Z,3.09
2018-03-22T17:25:31.128Z,3.05
2018-03-22T17:28:00.449Z,3.09
2018-03-22T17:30:29.682Z,3.08
2018-03-22T17:32:58.866Z,3.02
2018-03-22T17:35:28.862Z,3.16
2018-03-22T17:37:57.695Z,3.08
2018-03-22T17:40:26.243Z,3.04
2018-03-22T17:42:54.876Z,2.99
2018-03-22T17:45:23.466Z,2.96
2018-03-22T17:47:51.825Z,2.96
2018-03-22T17:50:20.986Z,2.87
2018-03-22T17:52:49.879Z,2.88
2018-03-22T17:55:18.445Z,3.01
2018-03-22T17:57:47.248Z,2.92
2018-03-22T18:00:16.493Z,2.84
2018-03-22T18:02:45.527Z,2.81
2018-03-22T18:05:14.480Z,2.89
2018-03-22T18:07:42.903Z,2.86
2018-03-22T18:10:11.973Z,2.92
2018-03-22T18:12:40.833Z,2.87
2018-03-22T18:15:10.774Z,2.77
2018-03-22T18:17:40.342Z,2.86
2018-03-22T18:20:09.051Z,2.81
2018-03-22T18:22:37.890Z,2.85
2018-03-22T18:25:06.656Z,2.80
2018-03-22T18:27:35.937Z,2.90
2018-03-22T18:30:05.604Z,2.75
2018-03-22T18:32:35.137Z,2.82
2018-03-22T18:35:03.490Z,2.80
2018-03-22T18:37:32.313Z,2.77
2018-03-22T18:40:01.435Z,2.80
2018-03-22T18:42:30.714Z,2.72
2018-03-22T18:44:59.732Z,2.81
2018-03-22T18:47:29.053Z,2.93
2018-03-22T18:49:58.416Z,2.80
2018-03-22T18:52:28.646Z,2.80
2018-03-22T18:54:57.245Z,2.80
2018-03-22T18:57:26.138Z,2.75
2018-03-22T18:59:55.552Z,2.78
2018-03-22T19:02:24.522Z,2.82
2018-03-22T19:04:53.599Z,2.93
2018-03-22T19:07:23.127Z,2.86
2018-03-22T19:09:53.575Z,2.88
2018-03-22T19:12:22.604Z,2.87
2018-03-22T19:14:51.048Z,2.92
2018-03-22T19:17:20.268Z,3.02
2018-03-22T19:19:49.673Z,2.99
2018-03-22T19:22:18.637Z,2.91
2018-03-22T19:24:49.500Z,3.00
2018-03-22T19:27:19.100Z,3.03
2018-03-22T19:29:48.132Z,2.91
2018-03-22T19:32:17.239Z,2.85
2018-03-22T19:34:46.702Z,2.94
2018-03-22T19:37:16.005Z,2.86
2018-03-22T19:39:45.263Z,2.82
2018-03-22T19:42:14.530Z,2.84
2018-03-22T19:44:43.017Z,2.80
2018-03-22T19:47:12.805Z,2.90
2018-03-22T19:49:41.909Z,2.81
2018-03-22T19:52:10.613Z,2.87
2018-03-22T19:54:39.571Z,2.86
2018-03-22T19:57:08.350Z,2.89
2018-03-22T19:59:36.950Z,2.87
2018-03-22T20:02:06.549Z,2.90
2018-03-22T20:04:34.924Z,2.84
2018-03-22T20:07:03.933Z,2.88
2018-03-22T20:09:32.990Z,2.91
2018-03-22T20:12:01.624Z,2.83
2018-03-22T20:14:30.514Z,2.94
2018-03-22T20:16:58.923Z,2.77
2018-03-22T20:19:27.746Z,2.85
2018-03-22T20:21:57.095Z,2.86
2018-03-22T20:24:26.279Z,2.95
2018-03-22T20:26:55.451Z,2.95
2018-03-22T20:29:24.180Z,2.97
2018-03-22T20:31:53.147Z,3.11
2018-03-22T20:34:22.519Z,3.00
2018-03-22T20:36:51.883Z,2.86
2018-03-22T20:39:20.663Z,2.97
2018-03-22T20:41:49.409Z,2.91
2018-03-22T20:44:19.048Z,2.92
2018-03-22T20:46:49.286Z,2.95
2018-03-22T20:49:20.547Z,2.92
2018-03-22T20:51:49.368Z,2.98
2018-03-22T20:54:19.683Z,2.90
2018-03-22T20:56:48.909Z,3.02
2018-03-22T20:59:18.770Z,2.92
2018-03-22T21:01:47.917Z,2.96
2018-03-22T21:04:17.048Z,3.01
2018-03-22T21:06:45.905Z,2.97
2018-03-22T21:09:15.001Z,2.98
2018-03-22T21:11:44.243Z,2.98
2018-03-22T21:14:13.092Z,2.94
2018-03-22T21:16:42.014Z,2.88
2018-03-22T21:19:11.001Z,2.85
2018-03-22T21:21:39.999Z,2.85
2018-03-22T21:24:09.377Z,2.92
2018-03-22T21:26:38.297Z,2.83
2018-03-22T21:29:08.141Z,2.87
2018-03-22T21:31:37.327Z,2.93
2018-03-22T21:34:06.750Z,2.94
2018-03-22T21:36:34.998Z,2.98
2018-03-22T21:39:04.460Z,3.01
2018-03-22T21:41:34.051Z,3.10
2018-03-22T21:44:14.460Z,3.04
2018-03-22T21:46:47.224Z,2.98
2018-03-22T21:49:16.630Z,3.12
2018-03-22T21:54:49.686Z,3.12
2018-03-22T21:57:18.951Z,3.13
2018-03-22T22:02:41.514Z,3.20
2018-03-22T22:05:10.700Z,3.14
2018-03-22T22:07:40.130Z,3.13
2018-03-22T22:10:09.379Z,3.15
2018-03-22T22:12:38.485Z,3.22
2018-03-22T22:15:07.935Z,3.23
2018-03-22T22:17:36.556Z,3.20
2018-03-22T22:20:05.876Z,3.17
2018-03-22T22:22:35.185Z,3.17
2018-03-22T22:25:04.312Z,3.15
2018-03-22T22:27:34.012Z,3.14
2018-03-22T22:30:03.014Z,3.02
2018-03-22T22:32:32.195Z,3.15
2018-03-22T22:35:01.690Z,3.07
2018-03-22T22:37:30.869Z,3.18
2018-03-22T22:39:59.969Z,3.25
2018-03-22T22:42:30.127Z,3.15
2018-03-22T22:44:58.931Z,3.15
2018-03-22T22:47:28.172Z,3.07
2018-03-22T22:49:57.325Z,3.14
2018-03-22T22:52:27.017Z,3.14
2018-03-22T22:54:55.621Z,3.08
2018-03-22T22:57:24.681Z,3.16
2018-03-22T22:59:53.833Z,3.13
2018-03-22T23:02:22.571Z,2.99
2018-03-22T23:04:52.767Z,2.98
2018-03-22T23:07:22.306Z,2.93
2018-03-22T23:09:52.057Z,3.05
2018-03-22T23:12:21.578Z,3.06
2018-03-22T23:14:50.868Z,2.93
2018-03-22T23:17:19.638Z,2.92
2018-03-22T23:19:48.232Z,2.91
2018-03-22T23:22:17.193Z,3.00
2018-03-22T23:24:47.110Z,3.14
2018-03-22T23:27:16.834Z,2.95
2018-03-22T23:29:46.123Z,3.04
2018-03-22T23:32:15.177Z,2.96
2018-03-22T23:34:44.970Z,3.10
2018-03-22T23:37:13.749Z,3.02
2018-03-22T23:39:42.881Z,3.03
2018-03-22T23:42:11.502Z,3.11
2018-03-22T23:44:41.284Z,3.08
2018-03-22T23:47:10.893Z,3.12
2018-03-22T23:49:39.830Z,3.04
2018-03-22T23:52:09.558Z,2.93
2018-03-22T23:54:38.633Z,2.89
2018-03-22T23:57:08.379Z,2.85
2018-03-22T23:59:37.962Z,2.98
